createdAt,value
2024-04-13T00:01:59.247Z,73.10
2024-04-13T00:04:26.047Z,73.10
2024-04-13T00:06:53.044Z,73.10
2024-04-13T00:09:21.005Z,73.10
2024-04-13T00:11:47.845Z,73.10
2024-04-13T00:14:14.565Z,73.10
2024-04-13T00:16:41.448Z,73.10
2024-04-13T00:19:08.944Z,73.10
2024-04-13T00:21:35.862Z,73.10
2024-04-13T00:24:02.816Z,73.10
2024-04-13T00:26:29.585Z,73.10
2024-04-13T00:28:56.612Z,73.10
2024-04-13T00:31:23.717Z,73.10
2024-04-13T00:33:50.499Z,73.10
2024-04-13T00:36:18.313Z,73.10
2024-04-13T00:38:45.167Z,73.10
2024-04-13T00:41:13.806Z,73.00
2024-04-13T00:43:40.598Z,73.10
2024-04-13T00:46:17.739Z,73.00
2024-04-13T00:48:45.258Z,73.00
2024-04-13T00:51:13.924Z,73.00
2024-04-13T00:53:42.580Z,73.00
2024-04-13T00:56:11.149Z,73.20
2024-04-13T00:58:38.384Z,73.30
2024-04-13T01:01:06.918Z,73.40
2024-04-13T01:03:36.744Z,73.30
2024-04-13T01:06:04.659Z,73.30
2024-04-13T01:08:35.409Z,73.40
2024-04-13T01:11:02.740Z,73.40
2024-04-13T01:13:29.722Z,73.40
2024-04-13T01:15:56.539Z,73.50
2024-04-13T01:18:24.742Z,73.50
2024-04-13T01:20:51.609Z,73.60
2024-04-13T01:23:19.849Z,73.60
2024-04-13T01:25:46.609Z,73.60
2024-04-13T01:28:16.277Z,73.70
2024-04-13T01:30:43.122Z,73.70
2024-04-13T01:33:10.868Z,73.70
2024-04-13T01:35:37.878Z,73.70
2024-04-13T01:38:04.755Z,73.70
2024-04-13T01:40:31.784Z,73.70
2024-04-13T01:42:59.315Z,73.80
2024-04-13T01:45:26.737Z,73.70
2024-04-13T01:47:53.663Z,73.80
2024-04-13T01:50:20.644Z,73.80
2024-04-13T01:52:47.613Z,73.80
2024-04-13T01:55:14.434Z,73.80
2024-04-13T01:57:41.250Z,73.80
2024-04-13T02:00:09.100Z,73.80
2024-04-13T02:02:35.940Z,73.80
2024-04-13T02:05:03.198Z,73.80
2024-04-13T02:07:30.634Z,73.90
2024-04-13T02:09:57.616Z,73.90
2024-04-13T02:12:24.424Z,73.90
2024-04-13T02:14:51.202Z,74.00
2024-04-13T02:17:18.066Z,74.00
2024-04-13T02:19:45.353Z,74.00
2024-04-13T02:22:12.833Z,74.00
2024-04-13T02:24:40.737Z,74.10
2024-04-13T02:27:07.722Z,74.20
2024-04-13T02:29:34.594Z,74.30
2024-04-13T02:32:01.339Z,75.00
2024-04-13T02:34:28.239Z,74.30
2024-04-13T02:36:54.982Z,74.40
2024-04-13T02:39:22.852Z,74.40
2024-04-13T02:41:49.971Z,74.50
2024-04-13T02:44:16.801Z,74.50
2024-04-13T02:46:43.765Z,74.50
2024-04-13T02:49:10.723Z,74.60
2024-04-13T02:51:37.769Z,74.70
2024-04-13T02:54:06.064Z,74.70
2024-04-13T02:56:34.933Z,74.70
2024-04-13T02:59:01.794Z,74.80
2024-04-13T03:01:28.621Z,74.90
2024-04-13T03:03:55.522Z,74.90
2024-04-13T03:06:22.468Z,75.00
2024-04-13T03:08:51.390Z,75.00
2024-04-13T03:11:19.361Z,75.10
2024-04-13T03:13:47.096Z,75.10
2024-04-13T03:16:14.182Z,75.20
2024-04-13T03:18:45.149Z,75.20
2024-04-13T03:21:12.392Z,75.30
2024-04-13T03:23:41.200Z,75.30
2024-04-13T03:26:08.120Z,75.30
2024-04-13T03:28:35.995Z,75.40
2024-04-13T03:31:03.968Z,75.40
2024-04-13T03:33:31.253Z,75.50
2024-04-13T03:36:02.390Z,76.20
2024-04-13T03:38:29.183Z,75.50
2024-04-13T03:41:08.833Z,75.50
2024-04-13T03:43:40.131Z,75.60
2024-04-13T03:46:08.100Z,75.60
2024-04-13T03:48:39.381Z,75.70
2024-04-13T03:51:07.743Z,75.70
2024-04-13T03:53:34.537Z,75.80
2024-04-13T03:56:02.341Z,75.80
2024-04-13T03:58:29.753Z,75.90
2024-04-13T04:00:56.699Z,75.90
2024-04-13T04:03:24.329Z,76.00
2024-04-13T04:05:52.032Z,76.00
2024-04-13T04:08:19.633Z,76.10
2024-04-13T04:10:46.503Z,76.20
2024-04-13T04:13:13.412Z,76.10
2024-04-13T04:15:41.729Z,76.20
2024-04-13T04:18:08.778Z,76.20
2024-04-13T04:20:35.833Z,76.30
2024-04-13T04:23:03.099Z,76.30
2024-04-13T04:25:29.930Z,76.40
2024-04-13T04:27:56.743Z,76.50
2024-04-13T04:30:26.202Z,76.60
2024-04-13T04:32:54.263Z,76.60
2024-04-13T04:35:21.255Z,76.60
2024-04-13T04:37:48.045Z,76.70
2024-04-13T04:40:14.803Z,76.70
2024-04-13T04:42:41.709Z,76.80
2024-04-13T04:45:09.328Z,76.90
2024-04-13T04:47:36.292Z,76.90
2024-04-13T04:50:04.974Z,77.00
2024-04-13T04:52:31.960Z,77.00
2024-04-13T04:55:02.281Z,76.90
2024-04-13T04:57:29.435Z,77.00
2024-04-13T04:59:56.698Z,77.10
2024-04-13T05:02:23.618Z,77.20
2024-04-13T05:04:50.357Z,77.20
2024-04-13T05:07:17.181Z,77.30
2024-04-13T05:09:43.958Z,77.30
2024-04-13T05:12:12.846Z,77.30
2024-04-13T05:14:39.891Z,77.30
2024-04-13T05:17:07.017Z,77.40
2024-04-13T05:19:34.057Z,77.40
2024-04-13T05:22:05.693Z,77.50
2024-04-13T05:24:33.691Z,77.60
2024-04-13T05:27:07.141Z,77.60
2024-04-13T05:29:37.685Z,77.60
2024-04-13T05:32:05.629Z,77.70
2024-04-13T05:34:32.910Z,77.70
2024-04-13T05:36:59.679Z,77.70
2024-04-13T05:39:28.970Z,77.80
2024-04-13T05:41:55.758Z,77.90
2024-04-13T05:44:22.534Z,78.00
2024-04-13T05:46:51.649Z,78.00
2024-04-13T05:49:18.526Z,78.00
2024-04-13T05:51:46.724Z,78.00
2024-04-13T05:54:13.549Z,78.00
2024-04-13T05:56:40.719Z,78.00
2024-04-13T05:59:07.969Z,78.00
2024-04-13T06:01:35.699Z,78.00
2024-04-13T06:04:02.573Z,78.80
2024-04-13T06:06:29.382Z,78.10
2024-04-13T06:08:56.153Z,78.10
2024-04-13T06:11:22.954Z,78.00
2024-04-13T06:13:49.750Z,78.10
2024-04-13T06:16:16.574Z,78.10
2024-04-13T06:18:43.485Z,78.10
2024-04-13T06:21:10.580Z,78.10
2024-04-13T06:23:37.415Z,78.10
2024-04-13T06:26:06.170Z,78.00
2024-04-13T06:28:32.957Z,77.90
2024-04-13T06:30:59.738Z,77.80
2024-04-13T06:33:26.672Z,77.80
2024-04-13T06:35:53.659Z,78.60
2024-04-13T06:38:25.293Z,77.80
2024-04-13T06:40:52.677Z,77.70
2024-04-13T06:43:23.416Z,77.60
2024-04-13T06:45:51.961Z,77.40
2024-04-13T06:48:19.019Z,77.30
2024-04-13T06:50:45.926Z,77.20
2024-04-13T06:53:12.778Z,77.20
2024-04-13T06:55:39.514Z,77.10
2024-04-13T06:58:06.401Z,76.80
2024-04-13T07:00:34.181Z,76.70
2024-04-13T07:03:01.296Z,76.50
2024-04-13T07:05:28.489Z,76.30
2024-04-13T07:07:55.308Z,76.30
2024-04-13T07:10:22.195Z,76.30
2024-04-13T07:12:49.257Z,76.30
2024-04-13T07:15:16.083Z,76.20
2024-04-13T07:17:42.880Z,76.10
2024-04-13T07:20:10.312Z,75.90
2024-04-13T07:22:37.119Z,75.90
2024-04-13T07:25:04.104Z,75.50
2024-04-13T07:27:30.908Z,75.30
2024-04-13T07:29:57.678Z,75.20
2024-04-13T07:32:24.507Z,75.00
2024-04-13T07:34:51.283Z,74.90
2024-04-13T07:37:18.025Z,74.60
2024-04-13T07:39:44.837Z,74.50
2024-04-13T07:42:11.746Z,74.60
2024-04-13T07:44:41.264Z,74.60
2024-04-13T07:47:09.523Z,74.60
2024-04-13T07:49:36.263Z,74.50
2024-04-13T07:52:03.020Z,74.40
2024-04-13T07:54:29.794Z,74.90
2024-04-13T07:56:56.887Z,73.90
2024-04-13T07:59:23.739Z,73.70
2024-04-13T08:01:50.860Z,73.70
2024-04-13T08:04:18.257Z,73.70
2024-04-13T08:06:45.203Z,74.40
2024-04-13T08:09:12.060Z,73.60
2024-04-13T08:11:40.000Z,73.50
2024-04-13T08:14:11.666Z,73.40
2024-04-13T08:16:39.986Z,73.20
2024-04-13T08:19:06.856Z,73.00
2024-04-13T08:21:35.416Z,72.80
2024-04-13T08:24:02.718Z,72.40
2024-04-13T08:26:29.492Z,72.50
2024-04-13T08:28:56.324Z,72.30
2024-04-13T08:31:23.159Z,72.10
2024-04-13T08:33:50.025Z,72.00
2024-04-13T08:36:16.835Z,71.90
2024-04-13T08:38:45.669Z,72.10
2024-04-13T08:41:23.419Z,71.90
2024-04-13T08:43:50.380Z,71.30
2024-04-13T08:46:17.131Z,71.20
2024-04-13T08:48:44.499Z,71.10
2024-04-13T08:51:13.454Z,70.50
2024-04-13T08:53:43.301Z,70.40
2024-04-13T08:56:12.537Z,69.50
2024-04-13T08:58:40.245Z,69.40
2024-04-13T09:01:11.899Z,69.10
2024-04-13T09:03:38.936Z,68.70
2024-04-13T09:06:07.518Z,68.00
2024-04-13T09:08:35.454Z,67.30
2024-04-13T09:11:07.127Z,66.80
2024-04-13T09:13:34.258Z,66.40
2024-04-13T09:16:01.666Z,66.50
2024-04-13T09:18:28.810Z,66.20
2024-04-13T09:27:19.298Z,64.90
2024-04-13T09:33:59.976Z,64.10
2024-04-13T09:36:28.095Z,64.00
2024-04-13T09:39:03.867Z,64.00
2024-04-13T09:41:30.691Z,63.00
2024-04-13T09:43:57.431Z,62.60
2024-04-13T09:46:24.361Z,61.90
2024-04-13T09:48:57.585Z,62.30
2024-04-13T09:51:26.164Z,62.40
2024-04-13T09:53:54.601Z,62.20
2024-04-13T09:56:22.230Z,61.70
2024-04-13T09:58:51.575Z,60.80
2024-04-13T10:01:18.463Z,60.60
2024-04-13T10:03:45.547Z,60.70
2024-04-13T10:06:16.845Z,60.00
2024-04-13T10:08:45.320Z,60.20
2024-04-13T10:11:14.365Z,60.40
2024-04-13T10:13:45.685Z,60.00
2024-04-13T10:16:13.814Z,60.30
2024-04-13T10:18:40.654Z,60.20
2024-04-13T10:21:07.726Z,59.70
2024-04-13T10:23:41.816Z,59.70
2024-04-13T10:26:09.013Z,59.10
2024-04-13T10:28:35.871Z,58.80
2024-04-13T10:31:05.768Z,59.20
2024-04-13T10:33:37.137Z,59.10
2024-04-13T10:36:15.912Z,58.70
2024-04-13T10:38:56.301Z,58.70
2024-04-13T10:41:37.380Z,58.40
2024-04-13T10:44:15.853Z,58.10
2024-04-13T10:47:00.299Z,58.60
2024-04-13T10:49:29.927Z,59.60
2024-04-13T10:51:57.333Z,59.60
2024-04-13T10:54:25.569Z,59.90
2024-04-13T10:56:59.801Z,59.50
2024-04-13T10:59:34.531Z,60.00
2024-04-13T11:02:05.361Z,60.10
2024-04-13T11:04:42.917Z,59.50
2024-04-13T11:07:09.893Z,59.40
2024-04-13T11:09:36.746Z,59.50
2024-04-13T11:12:07.394Z,60.00
2024-04-13T11:14:34.167Z,60.40
2024-04-13T11:17:01.123Z,60.20
2024-04-13T11:19:28.142Z,59.70
2024-04-13T11:21:58.354Z,60.30
2024-04-13T11:24:27.707Z,59.90
2024-04-13T11:26:56.190Z,59.20
2024-04-13T11:29:23.359Z,59.70
2024-04-13T11:31:50.627Z,59.50
2024-04-13T11:34:17.706Z,59.90
2024-04-13T11:36:44.821Z,60.20
2024-04-13T11:39:11.678Z,59.60
2024-04-13T11:41:38.658Z,59.30
2024-04-13T11:44:06.180Z,59.60
2024-04-13T11:46:32.971Z,59.30
2024-04-13T11:49:00.370Z,59.50
2024-04-13T11:51:29.291Z,59.40
2024-04-13T11:53:56.714Z,59.70
2024-04-13T11:56:23.815Z,58.60
2024-04-13T11:59:00.312Z,58.20
2024-04-13T12:01:37.246Z,58.00
2024-04-13T12:04:07.956Z,57.90
2024-04-13T12:06:50.180Z,57.70
2024-04-13T12:09:19.786Z,57.70
2024-04-13T12:11:46.752Z,56.70
2024-04-13T12:14:15.454Z,55.90
2024-04-13T12:16:42.592Z,55.30
2024-04-13T12:19:09.431Z,56.00
2024-04-13T12:21:36.357Z,55.40
2024-04-13T12:24:05.463Z,54.80
2024-04-13T12:26:32.239Z,54.70
2024-04-13T12:28:58.998Z,54.10
2024-04-13T12:31:26.120Z,53.80
2024-04-13T12:33:52.872Z,53.60
2024-04-13T12:36:19.687Z,53.30
2024-04-13T12:38:46.446Z,53.10
2024-04-13T12:41:14.673Z,53.40
2024-04-13T12:43:42.033Z,53.20
2024-04-13T12:46:08.865Z,53.60
2024-04-13T12:48:35.751Z,53.50
2024-04-13T12:51:02.599Z,53.70
2024-04-13T12:53:29.388Z,53.10
2024-04-13T12:55:56.262Z,52.10
2024-04-13T12:58:23.062Z,51.50
2024-04-13T13:00:49.873Z,51.90
2024-04-13T13:03:16.809Z,52.00
2024-04-13T13:05:45.789Z,52.50
2024-04-13T13:08:13.355Z,51.60
2024-04-13T13:10:40.104Z,50.50
2024-04-13T13:13:06.961Z,49.80
2024-04-13T13:15:33.768Z,49.60
2024-04-13T13:18:00.613Z,49.10
2024-04-13T13:20:27.415Z,48.80
2024-04-13T13:22:54.462Z,49.50
2024-04-13T13:25:21.237Z,50.00
2024-04-13T13:27:48.082Z,49.40
2024-04-13T13:30:14.907Z,49.60
2024-04-13T13:32:41.739Z,49.20
2024-04-13T13:35:08.680Z,49.80
2024-04-13T13:37:36.770Z,49.00
2024-04-13T13:40:03.989Z,48.20
2024-04-13T13:42:30.725Z,48.80
2024-04-13T13:44:57.495Z,49.00
2024-04-13T13:47:24.319Z,49.70
2024-04-13T13:49:52.507Z,49.00
2024-04-13T13:52:19.296Z,49.80
2024-04-13T13:54:46.134Z,49.10
2024-04-13T13:57:12.938Z,49.20
2024-04-13T13:59:39.747Z,49.40
2024-04-13T14:02:07.219Z,50.10
2024-04-13T14:04:34.111Z,50.60
2024-04-13T14:07:00.847Z,50.40
2024-04-13T14:09:27.608Z,50.30
2024-04-13T14:11:54.442Z,50.50
2024-04-13T14:14:21.192Z,50.70
2024-04-13T14:16:49.957Z,50.70
2024-04-13T14:19:19.885Z,51.00
2024-04-13T14:21:46.777Z,50.80
2024-04-13T14:24:13.556Z,50.50
2024-04-13T14:26:41.260Z,50.00
2024-04-13T14:29:08.102Z,49.30
2024-04-13T14:31:34.923Z,49.60
2024-04-13T14:34:01.848Z,49.40
2024-04-13T14:36:28.696Z,49.00
2024-04-13T14:38:55.742Z,48.50
2024-04-13T14:41:22.533Z,48.80
2024-04-13T14:43:51.157Z,49.40
2024-04-13T14:46:17.926Z,49.50
2024-04-13T14:48:45.101Z,48.70
2024-04-13T14:51:12.225Z,48.10
2024-04-13T14:53:39.012Z,48.60
2024-04-13T14:56:06.190Z,48.90
2024-04-13T14:58:32.942Z,48.70
2024-04-13T15:01:03.502Z,49.40
2024-04-13T15:03:30.562Z,50.40
2024-04-13T15:05:58.086Z,49.10
2024-04-13T15:08:25.414Z,48.70
2024-04-13T15:10:52.220Z,48.00
2024-04-13T15:13:19.054Z,48.00
2024-04-13T15:15:49.561Z,47.90
2024-04-13T15:18:16.959Z,47.30
2024-04-13T15:20:43.773Z,47.50
2024-04-13T15:23:10.573Z,48.00
2024-04-13T15:25:37.703Z,48.20
2024-04-13T15:28:04.755Z,48.40
2024-04-13T15:30:31.517Z,48.50
2024-04-13T15:32:58.383Z,48.00
2024-04-13T15:35:25.203Z,48.30
2024-04-13T15:37:52.446Z,48.70
2024-04-13T15:40:20.683Z,48.90
2024-04-13T15:42:47.703Z,49.40
2024-04-13T15:45:15.682Z,49.60
2024-04-13T15:47:45.288Z,49.60
2024-04-13T15:50:12.188Z,49.90
2024-04-13T15:52:38.975Z,49.80
2024-04-13T15:55:05.850Z,49.90
2024-04-13T15:57:32.774Z,50.30
2024-04-13T16:00:01.011Z,50.30
2024-04-13T16:02:28.255Z,50.20
2024-04-13T16:04:55.908Z,50.20
2024-04-13T16:07:23.050Z,50.30
2024-04-13T16:09:55.342Z,50.40
2024-04-13T16:12:22.999Z,50.90
2024-04-13T16:14:50.189Z,52.30
2024-04-13T16:17:17.109Z,52.00
2024-04-13T16:19:43.996Z,52.30
2024-04-13T16:22:10.874Z,52.70
2024-04-13T16:24:37.742Z,52.70
2024-04-13T16:27:06.214Z,52.50
2024-04-13T16:29:33.007Z,52.60
2024-04-13T16:32:01.623Z,52.80
2024-04-13T16:34:29.241Z,52.50
2024-04-13T16:37:00.622Z,52.20
2024-04-13T16:39:29.305Z,52.70
2024-04-13T16:42:32.452Z,53.80
2024-04-13T16:45:22.375Z,53.10
2024-04-13T16:47:59.600Z,53.00
2024-04-13T16:50:30.924Z,52.90
2024-04-13T16:53:04.485Z,52.90
2024-04-13T16:58:37.589Z,53.60
2024-04-13T17:03:46.213Z,54.20
2024-04-13T17:06:21.250Z,54.70
2024-04-13T17:08:54.919Z,55.10
2024-04-13T17:11:35.267Z,55.20
2024-04-13T17:14:02.085Z,55.30
2024-04-13T17:16:28.875Z,55.60
2024-04-13T17:21:42.806Z,55.80
2024-04-13T17:24:09.614Z,55.90
2024-04-13T17:26:36.463Z,56.20
2024-04-13T17:29:03.194Z,56.40
2024-04-13T17:31:30.094Z,56.40
2024-04-13T17:33:56.892Z,56.40
2024-04-13T17:36:24.364Z,56.50
2024-04-13T17:38:51.199Z,56.90
2024-04-13T17:41:17.926Z,57.20
2024-04-13T17:43:45.474Z,57.40
2024-04-13T17:46:12.194Z,57.40
2024-04-13T17:48:39.027Z,57.60
2024-04-13T17:51:06.203Z,57.80
2024-04-13T17:53:32.955Z,57.90
2024-04-13T17:55:59.720Z,57.80
2024-04-13T17:58:26.438Z,58.20
2024-04-13T18:00:53.263Z,58.30
2024-04-13T18:03:20.140Z,58.20
2024-04-13T18:05:46.948Z,58.30
2024-04-13T18:08:13.751Z,58.50
2024-04-13T18:10:41.388Z,58.60
2024-04-13T18:13:08.185Z,58.60
2024-04-13T18:15:34.976Z,58.70
2024-04-13T18:18:02.005Z,58.80
2024-04-13T18:20:29.149Z,59.00
2024-04-13T18:22:55.895Z,59.30
2024-04-13T18:25:22.727Z,59.40
2024-04-13T18:27:49.570Z,59.60
2024-04-13T18:30:16.421Z,59.80
2024-04-13T18:32:43.226Z,60.00
2024-04-13T18:35:10.036Z,60.20
2024-04-13T18:37:36.780Z,60.50
2024-04-13T18:40:03.757Z,60.70
2024-04-13T18:42:30.777Z,61.00
2024-04-13T18:44:57.517Z,61.20
2024-04-13T18:47:24.440Z,61.40
2024-04-13T18:49:54.898Z,61.60
2024-04-13T18:52:22.206Z,61.90
2024-04-13T18:54:49.764Z,62.00
2024-04-13T18:57:16.698Z,62.10
2024-04-13T18:59:43.925Z,62.30
2024-04-13T19:02:10.858Z,62.40
2024-04-13T19:04:37.745Z,62.60
2024-04-13T19:07:04.864Z,62.80
2024-04-13T19:09:31.839Z,62.90
2024-04-13T19:11:58.745Z,63.10
2024-04-13T19:14:25.496Z,63.20
2024-04-13T19:16:52.534Z,63.20
2024-04-13T19:19:19.648Z,63.50
2024-04-13T19:21:46.640Z,63.70
2024-04-13T19:24:14.165Z,63.60
2024-04-13T19:26:41.903Z,63.80
2024-04-13T19:29:09.058Z,63.80
2024-04-13T19:31:36.135Z,64.00
2024-04-13T19:34:04.287Z,64.00
2024-04-13T19:36:32.574Z,64.10
2024-04-13T19:38:59.472Z,64.30
2024-04-13T19:41:26.194Z,64.30
2024-04-13T19:43:53.494Z,64.30
2024-04-13T19:46:20.502Z,64.20
2024-04-13T19:48:47.383Z,64.10
2024-04-13T19:51:14.194Z,64.10
2024-04-13T19:53:44.724Z,64.10
2024-04-13T19:56:11.481Z,64.20
2024-04-13T19:58:38.237Z,64.40
2024-04-13T20:01:06.957Z,64.30
2024-04-13T20:03:34.060Z,64.10
2024-04-13T20:06:01.584Z,63.80
2024-04-13T20:08:28.665Z,63.40
2024-04-13T20:11:06.038Z,62.80
2024-04-13T20:13:33.469Z,62.50
2024-04-13T20:16:19.246Z,62.40
2024-04-13T20:18:46.506Z,61.50
2024-04-13T20:21:13.535Z,61.30
2024-04-13T20:23:40.360Z,61.20
2024-04-13T20:26:07.175Z,61.00
2024-04-13T20:28:36.886Z,60.90
2024-04-13T20:31:03.768Z,60.60
2024-04-13T20:33:31.746Z,60.70
2024-04-13T20:35:58.738Z,60.70
2024-04-13T20:38:25.957Z,60.60
2024-04-13T20:40:54.243Z,60.70
2024-04-13T20:43:21.012Z,60.60
2024-04-13T20:45:47.821Z,60.60
2024-04-13T20:48:14.890Z,60.60
2024-04-13T20:50:41.962Z,60.70
2024-04-13T20:53:08.820Z,60.80
2024-04-13T20:55:35.578Z,61.00
2024-04-13T20:58:02.796Z,61.00
2024-04-13T21:00:32.315Z,61.00
2024-04-13T21:02:59.652Z,61.70
2024-04-13T21:05:34.242Z,60.90
2024-04-13T21:08:04.889Z,60.90
2024-04-13T21:10:31.927Z,60.70
2024-04-13T21:13:01.061Z,60.60
2024-04-13T21:15:28.220Z,60.70
2024-04-13T21:17:55.058Z,60.70
2024-04-13T21:20:21.896Z,60.70
2024-04-13T21:22:48.621Z,60.50
2024-04-13T21:25:15.386Z,60.40
2024-04-13T21:27:42.167Z,60.40
2024-04-13T21:30:09.429Z,60.30
2024-04-13T21:32:36.758Z,60.00
2024-04-13T21:35:03.727Z,60.00
2024-04-13T21:37:30.604Z,59.70
2024-04-13T21:39:57.453Z,59.60
2024-04-13T21:42:24.277Z,59.20
2024-04-13T21:44:51.195Z,58.90
2024-04-13T21:47:17.933Z,58.90
2024-04-13T21:49:44.699Z,58.70
2024-04-13T21:52:11.458Z,58.50
2024-04-13T21:54:38.226Z,58.50
2024-04-13T21:57:08.732Z,58.20
2024-04-13T21:59:37.144Z,58.20
2024-04-13T22:02:04.123Z,58.30
2024-04-13T22:04:30.928Z,58.00
2024-04-13T22:06:57.799Z,58.20
2024-04-13T22:09:24.674Z,58.40
2024-04-13T22:11:51.454Z,58.30
2024-04-13T22:14:18.256Z,58.30
2024-04-13T22:16:45.034Z,58.40
2024-04-13T22:19:12.110Z,58.50
2024-04-13T22:21:39.025Z,58.30
2024-04-13T22:24:06.693Z,58.40
2024-04-13T22:26:33.529Z,58.60
2024-04-13T22:29:00.337Z,58.80
2024-04-13T22:31:28.835Z,58.90
2024-04-13T22:33:55.815Z,58.90
2024-04-13T22:36:22.659Z,59.20
2024-04-13T22:38:49.494Z,59.40
2024-04-13T22:41:16.212Z,59.50
2024-04-13T22:43:42.959Z,59.60
2024-04-13T22:46:10.130Z,59.70
2024-04-13T22:48:36.972Z,60.00
2024-04-13T22:51:04.251Z,60.00
2024-04-13T22:53:30.979Z,60.20
2024-04-13T22:55:57.869Z,60.40
2024-04-13T22:58:24.663Z,60.50
2024-04-13T23:00:55.205Z,60.60
2024-04-13T23:03:22.168Z,60.80
2024-04-13T23:05:55.921Z,61.00
2024-04-13T23:08:22.836Z,61.30
2024-04-13T23:10:49.733Z,61.50
2024-04-13T23:13:16.932Z,61.70
2024-04-13T23:15:43.997Z,61.90
2024-04-13T23:18:10.837Z,62.20
2024-04-13T23:20:37.891Z,62.40
2024-04-13T23:23:04.865Z,62.70
2024-04-13T23:25:32.458Z,62.90
2024-04-13T23:27:59.597Z,63.10
2024-04-13T23:30:26.548Z,63.50
2024-04-13T23:32:53.379Z,64.50
2024-04-13T23:35:20.302Z,63.80
2024-04-13T23:37:47.120Z,64.20
2024-04-13T23:40:13.901Z,64.50
2024-04-13T23:42:40.658Z,64.80
2024-04-13T23:45:07.508Z,65.10
2024-04-13T23:47:34.320Z,65.40
2024-04-13T23:50:01.083Z,65.60
2024-04-13T23:52:27.845Z,65.80
2024-04-13T23:54:54.631Z,66.00
2024-04-13T23:57:21.421Z,66.20
2024-04-13T23:59:48.194Z,66.40
